Time;durP1;ratioP1;P1;durP2;ratioP2;P2;SDS_P1;SDS_P2;PMS_P1;PMS_P2;Temp;Humidity;BMP_temperature;BMP_pressure;BME280_temperature;BME280_humidity;BME280_pressure;Samples;Min_cycle;Max_cycle;Signal;HPM_P1;HPM_P2
2021/11/08 00:01:51;;;;;;;8.02;5.57;;;9.20;99.90;;;;;;5059082;28;20193;-85
2021/11/08 00:04:17;;;;;;;11.65;5.88;;;9.50;99.90;;;;;;5066144;28;20273;-87
2021/11/08 00:06:43;;;;;;;15.73;5.20;;;9.00;99.90;;;;;;5054084;28;20313;-86
2021/11/08 00:09:08;;;;;;;8.87;5.80;;;9.50;99.90;;;;;;5057092;28;20220;-86
2021/11/08 00:11:36;;;;;;;9.90;5.77;;;9.30;99.90;;;;;;5060365;28;20665;-87
2021/11/08 00:14:02;;;;;;;8.75;5.32;;;9.20;99.90;;;;;;5058454;28;20489;-87
2021/11/08 00:21:33;;;;;;;6.97;5.40;;;9.10;99.90;;;;;;5047033;28;20202;-87
2021/11/08 00:23:59;;;;;;;8.57;5.40;;;9.30;99.90;;;;;;5053528;28;20263;-87
2021/11/08 00:26:25;;;;;;;8.95;5.70;;;9.10;99.90;;;;;;5063260;28;20668;-87
2021/11/08 00:28:51;;;;;;;8.57;5.80;;;9.70;99.90;;;;;;5060545;28;20246;-87
2021/11/08 00:31:16;;;;;;;5.70;4.80;;;9.40;99.90;;;;;;5049505;28;20210;-87
2021/11/08 00:33:42;;;;;;;5.70;5.03;;;9.60;99.90;;;;;;5052225;28;20449;-87
2021/11/08 00:36:08;;;;;;;9.17;4.90;;;9.20;99.90;;;;;;5051712;28;20193;-86
2021/11/08 00:38:34;;;;;;;5.57;4.55;;;9.20;99.90;;;;;;5044014;28;20193;-87
2021/11/08 00:41:00;;;;;;;6.50;4.45;;;8.90;99.90;;;;;;5050016;28;20232;-87
2021/11/08 00:43:26;;;;;;;7.63;4.60;;;9.20;99.90;;;;;;5051870;28;20187;-86
2021/11/08 00:45:51;;;;;;;8.40;5.03;;;9.20;99.90;;;;;;5049745;28;20186;-87
2021/11/08 00:48:21;;;;;;;6.93;4.43;;;9.40;99.90;;;;;;5050393;28;20481;-87
2021/11/08 00:50:49;;;;;;;7.30;4.78;;;8.40;99.90;;;;;;5054893;28;20201;-87
2021/11/08 00:53:15;;;;;;;8.32;5.10;;;9.00;99.90;;;;;;5066111;28;20205;-87
2021/11/08 00:55:42;;;;;;;9.57;5.65;;;9.30;99.90;;;;;;5056681;28;20228;-86
2021/11/08 00:58:14;;;;;;;5.32;4.25;;;8.60;99.90;;;;;;5056859;28;20272;-87
2021/11/08 01:00:40;;;;;;;7.28;5.20;;;8.70;99.90;;;;;;5064336;28;20209;-87
2021/11/08 01:03:07;;;;;;;5.68;4.90;;;8.60;99.90;;;;;;5054544;28;20224;-86
2021/11/08 01:05:33;;;;;;;8.57;4.70;;;8.80;99.90;;;;;;5066732;28;20186;-86
2021/11/08 01:08:00;;;;;;;11.73;5.60;;;8.50;99.90;;;;;;5064810;28;20196;-86
2021/11/08 01:10:26;;;;;;;8.43;5.15;;;8.30;99.90;;;;;;5051956;28;21639;-87
2021/11/08 01:12:52;;;;;;;6.95;4.10;;;8.70;99.90;;;;;;5067958;28;20188;-86
2021/11/08 01:15:18;;;;;;;8.07;5.07;;;8.70;99.90;;;;;;5063574;28;20180;-86
2021/11/08 01:17:44;;;;;;;6.03;5.30;;;8.60;99.90;;;;;;5057571;28;20414;-86
2021/11/08 01:20:11;;;;;;;7.07;5.65;;;8.70;99.90;;;;;;5051757;28;21036;-87
2021/11/08 01:22:39;;;;;;;5.55;4.60;;;8.40;99.90;;;;;;5062262;28;20185;-87
2021/11/08 01:25:07;;;;;;;7.60;5.20;;;7.90;99.90;;;;;;5049585;28;20534;-87
2021/11/08 01:30:08;;;;;;;8.82;5.65;;;8.10;99.90;;;;;;5054111;28;20209;-86
2021/11/08 01:32:33;;;;;;;9.27;6.38;;;7.50;99.90;;;;;;5056536;28;20178;-87
2021/11/08 01:34:59;;;;;;;10.37;6.10;;;7.50;99.90;;;;;;5061445;28;20266;-87
2021/11/08 01:37:25;;;;;;;7.00;5.80;;;7.50;99.90;;;;;;5056784;28;20448;-86
2021/11/08 01:39:51;;;;;;;10.20;5.80;;;7.60;99.90;;;;;;5048547;28;20217;-86
2021/11/08 01:42:17;;;;;;;7.30;5.60;;;7.50;99.90;;;;;;5054988;28;20665;-87
2021/11/08 01:44:43;;;;;;;8.60;5.83;;;7.80;99.90;;;;;;5052863;28;20196;-87
2021/11/08 01:47:09;;;;;;;12.35;7.03;;;7.50;99.90;;;;;;5050987;28;20200;-86
2021/11/08 01:49:36;;;;;;;9.65;5.93;;;7.30;99.90;;;;;;5058176;28;20219;-86
2021/11/08 01:52:03;;;;;;;7.65;5.50;;;7.60;99.90;;;;;;5060828;28;20597;-86
2021/11/08 01:54:29;;;;;;;6.88;5.65;;;7.00;99.90;;;;;;5059936;28;20220;-87
2021/11/08 01:56:56;;;;;;;9.90;6.10;;;7.50;99.90;;;;;;5057704;28;20596;-86
2021/11/08 01:59:23;;;;;;;8.90;6.25;;;6.90;99.90;;;;;;5049861;28;20212;-86
2021/11/08 02:01:50;;;;;;;7.57;5.97;;;6.70;99.90;;;;;;5052848;28;20300;-86
2021/11/08 02:04:16;;;;;;;6.40;5.57;;;7.10;99.90;;;;;;5057255;28;20196;-86
2021/11/08 02:06:42;;;;;;;9.63;5.90;;;6.50;99.90;;;;;;5062020;28;20218;-86
2021/11/08 02:09:08;;;;;;;7.53;6.77;;;7.20;99.90;;;;;;5061241;28;20682;-87
2021/11/08 02:11:35;;;;;;;9.70;7.20;;;6.30;99.90;;;;;;5058555;28;20668;-87
2021/11/08 02:14:01;;;;;;;8.27;6.00;;;7.40;99.90;;;;;;5060188;28;20271;-87
2021/11/08 02:16:27;;;;;;;10.23;6.28;;;7.00;99.90;;;;;;5059062;28;20178;-86
2021/11/08 02:18:53;;;;;;;9.93;6.27;;;7.00;99.90;;;;;;5048473;28;20200;-86
2021/11/08 02:21:18;;;;;;;8.33;6.50;;;7.00;99.90;;;;;;5052629;28;20218;-86
2021/11/08 02:23:48;;;;;;;8.50;6.10;;;6.90;99.90;;;;;;5066207;28;20235;-86
2021/11/08 02:26:16;;;;;;;7.90;5.78;;;7.20;99.90;;;;;;5052664;28;20486;-87
2021/11/08 02:28:47;;;;;;;10.15;6.25;;;7.20;99.90;;;;;;5051024;28;20638;-87
2021/11/08 02:31:16;;;;;;;6.47;5.88;;;6.60;99.90;;;;;;5062170;28;20204;-87
2021/11/08 02:33:42;;;;;;;8.63;6.20;;;6.90;99.90;;;;;;5058541;28;20205;-87
2021/11/08 02:36:09;;;;;;;6.83;6.00;;;6.50;99.90;;;;;;5056513;28;20218;-87
2021/11/08 02:38:38;;;;;;;7.30;5.90;;;6.60;99.90;;;;;;5061062;28;20175;-87
2021/11/08 02:41:04;;;;;;;9.00;5.93;;;7.00;99.90;;;;;;5052431;28;20216;-86
2021/11/08 02:43:30;;;;;;;8.53;5.57;;;6.90;99.90;;;;;;5062546;28;20188;-86
2021/11/08 02:48:37;;;;;;;9.70;6.18;;;6.80;99.90;;;;;;5055775;28;20501;-86
2021/11/08 02:51:11;;;;;;;8.27;5.70;;;5.80;99.90;;;;;;5054268;28;20238;-86
2021/11/08 02:53:39;;;;;;;9.38;6.70;;;6.30;99.90;;;;;;5047274;28;20187;-86
2021/11/08 02:56:06;;;;;;;13.07;6.88;;;6.10;99.90;;;;;;5058670;28;20708;-86
2021/11/08 02:58:32;;;;;;;7.53;6.05;;;6.10;99.90;;;;;;5062407;28;20185;-86
2021/11/08 03:00:58;;;;;;;7.80;5.07;;;6.20;99.90;;;;;;5058592;28;20212;-86
2021/11/08 03:03:32;;;;;;;10.90;6.90;;;6.10;99.90;;;;;;5064029;28;20184;-86
2021/11/08 03:06:03;;;;;;;9.73;5.80;;;6.20;99.90;;;;;;5062492;28;20209;-86
2021/11/08 03:08:29;;;;;;;8.05;5.65;;;6.10;99.90;;;;;;5050350;28;20334;-86
2021/11/08 03:10:56;;;;;;;6.90;6.20;;;6.10;99.90;;;;;;5054647;28;20227;-86
2021/11/08 03:13:25;;;;;;;10.18;6.40;;;6.10;99.90;;;;;;5061550;28;20187;-86
2021/11/08 03:16:08;;;;;;;9.27;6.15;;;6.00;99.90;;;;;;5060905;28;20183;-86
2021/11/08 03:18:40;;;;;;;8.35;6.10;;;6.10;99.90;;;;;;5047650;28;20229;-86
2021/11/08 03:21:14;;;;;;;9.25;6.47;;;6.00;99.90;;;;;;5056859;28;20777;-85
2021/11/08 03:23:41;;;;;;;7.65;6.20;;;5.40;99.90;;;;;;5059608;28;20185;-86
2021/11/08 03:26:29;;;;;;;11.05;6.60;;;5.80;99.90;;;;;;5064233;28;20182;-86
2021/11/08 03:28:55;;;;;;;6.82;6.22;;;6.10;99.90;;;;;;5052716;28;20186;-86
2021/11/08 03:31:20;;;;;;;6.45;5.63;;;5.90;99.90;;;;;;5053606;28;20201;-85
2021/11/08 03:33:48;;;;;;;8.10;6.30;;;5.80;99.90;;;;;;5056072;28;20186;-86
2021/11/08 03:36:15;;;;;;;7.65;5.70;;;5.70;99.90;;;;;;5050537;28;20181;-86
2021/11/08 03:38:41;;;;;;;9.55;5.70;;;5.20;99.90;;;;;;5055273;28;20272;-86
2021/11/08 03:41:08;;;;;;;12.27;6.20;;;6.00;99.90;;;;;;5048179;28;20300;-85
2021/11/08 03:43:34;;;;;;;7.22;5.63;;;5.70;99.90;;;;;;5052093;28;20505;-86
2021/11/08 03:46:00;;;;;;;16.70;6.77;;;5.70;99.90;;;;;;5055854;28;20182;-86
2021/11/08 03:48:26;;;;;;;7.93;5.63;;;5.20;99.90;;;;;;5051765;28;20484;-86
2021/11/08 03:50:52;;;;;;;7.90;6.07;;;6.00;99.90;;;;;;5055315;28;20739;-85
2021/11/08 03:53:18;;;;;;;10.35;6.70;;;5.90;99.90;;;;;;5062165;28;20448;-85
2021/11/08 03:55:45;;;;;;;7.90;5.77;;;6.00;99.90;;;;;;5051822;28;20190;-85
2021/11/08 03:58:11;;;;;;;7.28;5.90;;;5.10;99.90;;;;;;5051637;28;20236;-86
2021/11/08 04:00:37;;;;;;;8.20;5.82;;;5.10;99.90;;;;;;5056743;28;20210;-86
2021/11/08 04:03:04;;;;;;;12.03;5.57;;;5.70;99.90;;;;;;5057578;28;20530;-86
2021/11/08 04:05:33;;;;;;;7.57;6.70;;;5.60;99.90;;;;;;5056824;28;20201;-85
2021/11/08 04:08:04;;;;;;;8.70;6.30;;;5.70;99.90;;;;;;5065414;28;20303;-86
2021/11/08 04:10:30;;;;;;;7.90;5.90;;;5.20;99.90;;;;;;5055936;28;20248;-86
2021/11/08 04:13:03;;;;;;;8.32;6.15;;;5.30;99.90;;;;;;5063919;28;20178;-86
2021/11/08 04:15:31;;;;;;;10.15;6.00;;;5.10;99.90;;;;;;5056189;28;20188;-85
2021/11/08 04:17:57;;;;;;;9.13;5.85;;;5.70;99.90;;;;;;5052352;28;20241;-84
2021/11/08 04:20:24;;;;;;;7.50;6.10;;;5.40;99.90;;;;;;5049520;28;20299;-86
2021/11/08 04:22:52;;;;;;;14.48;7.40;;;4.90;99.90;;;;;;5061829;28;20185;-86
2021/11/08 04:25:21;;;;;;;8.55;6.65;;;5.70;99.90;;;;;;5063884;28;20192;-86
2021/11/08 04:27:47;;;;;;;8.20;5.80;;;5.40;99.90;;;;;;5057584;28;20284;-85
2021/11/08 04:30:14;;;;;;;7.43;5.60;;;5.20;99.90;;;;;;5063106;28;20733;-86
2021/11/08 04:32:50;;;;;;;11.00;6.68;;;5.10;99.90;;;;;;5052713;28;20516;-86
2021/11/08 04:36:07;;;;;;;8.65;6.38;;;5.10;99.90;;;;;;5053094;28;20185;-85
2021/11/08 04:38:21;;;;;;;8.57;6.72;;;5.10;99.90;;;;;;5047779;28;20295;-86
2021/11/08 04:43:55;;;;;;;8.55;6.20;;;4.90;99.90;;;;;;5028839;28;20193;-87
2021/11/08 04:46:40;;;;;;;7.25;6.05;;;4.70;99.90;;;;;;5050468;28;20197;-86
2021/11/08 04:51:43;;;;;;;9.00;5.67;;;5.30;99.90;;;;;;5058399;28;20266;-85
2021/11/08 05:21:33;;;;;;;8.90;6.45;;;5.00;99.90;;;;;;5051413;28;20637;-85
2021/11/08 05:32:11;;;;;;;8.05;6.20;;;5.00;99.90;;;;;;5058274;28;20185;-86
2021/11/08 05:34:37;;;;;;;11.33;6.70;;;4.70;99.90;;;;;;5056274;28;20305;-87
2021/11/08 05:37:08;;;;;;;8.00;5.93;;;4.10;99.90;;;;;;5057893;28;20248;-88
2021/11/08 05:39:34;;;;;;;7.80;6.43;;;4.40;99.90;;;;;;5070903;28;20708;-87
2021/11/08 05:42:02;;;;;;;8.43;5.90;;;4.30;99.90;;;;;;5064610;28;20669;-88
2021/11/08 05:44:27;;;;;;;8.65;6.07;;;4.10;99.90;;;;;;5053738;28;20631;-87
2021/11/08 05:46:53;;;;;;;7.33;6.10;;;4.50;99.90;;;;;;5054630;28;20202;-87
2021/11/08 05:49:18;;;;;;;9.23;6.70;;;4.80;99.90;;;;;;5049121;28;20640;-88
2021/11/08 05:51:44;;;;;;;9.70;6.37;;;5.00;99.90;;;;;;5049523;28;20654;-88
2021/11/08 05:54:10;;;;;;;7.80;6.47;;;5.00;99.90;;;;;;5056339;28;20223;-87
2021/11/08 06:51:04;;;;;;;12.55;7.45;;;4.10;99.90;;;;;;5062084;28;20641;-96
2021/11/08 06:53:31;;;;;;;11.67;6.57;;;5.00;99.90;;;;;;5071738;28;20192;-96
2021/11/08 06:55:58;;;;;;;12.32;6.93;;;5.20;99.90;;;;;;5062805;28;20459;-96
2021/11/08 06:58:26;;;;;;;10.65;6.57;;;5.10;99.90;;;;;;5053786;28;20602;-96
2021/11/08 07:00:53;;;;;;;16.10;7.93;;;5.00;99.90;;;;;;5069798;22;20233;-50
2021/11/08 07:03:19;;;;;;;8.18;6.30;;;5.10;99.90;;;;;;5073890;28;20178;-50
2021/11/08 07:05:45;;;;;;;8.67;6.00;;;4.60;99.90;;;;;;5087287;28;20180;-50
2021/11/08 07:08:11;;;;;;;13.53;8.77;;;4.80;99.90;;;;;;5090055;28;20500;-50
2021/11/08 07:10:37;;;;;;;9.70;6.00;;;4.60;99.90;;;;;;5087223;28;20462;-51
2021/11/08 07:13:03;;;;;;;10.65;7.35;;;4.60;99.90;;;;;;5085810;28;20500;-50
2021/11/08 07:15:29;;;;;;;14.30;10.45;;;4.70;99.90;;;;;;5077987;28;20649;-49
2021/11/08 07:17:56;;;;;;;10.05;7.32;;;4.90;99.90;;;;;;5073414;28;20650;-51
2021/11/08 07:20:23;;;;;;;17.33;11.10;;;5.00;99.90;;;;;;5072242;28;20205;-51
2021/11/08 07:22:49;;;;;;;10.00;6.85;;;4.80;99.90;;;;;;5077856;28;20215;-51
2021/11/08 07:25:15;;;;;;;8.95;5.85;;;4.90;99.90;;;;;;5085666;28;20196;-50
2021/11/08 07:27:41;;;;;;;8.33;5.30;;;4.90;99.90;;;;;;5081720;28;20205;-50
2021/11/08 07:30:08;;;;;;;6.55;5.80;;;4.70;99.90;;;;;;5071658;28;20514;-50
2021/11/08 07:32:34;;;;;;;7.72;6.10;;;5.00;99.90;;;;;;5083441;28;20255;-50
2021/11/08 07:35:00;;;;;;;7.50;6.72;;;4.90;99.90;;;;;;5094225;28;20189;-50
2021/11/08 07:37:26;;;;;;;9.70;6.75;;;5.00;99.90;;;;;;5079901;28;20282;-50
2021/11/08 07:39:52;;;;;;;8.70;7.07;;;4.30;99.90;;;;;;5080738;28;20299;-51
2021/11/08 07:42:19;;;;;;;17.92;6.85;;;5.10;99.90;;;;;;5080162;28;20181;-50
2021/11/08 07:44:45;;;;;;;9.43;6.70;;;4.90;99.90;;;;;;5080337;28;20187;-49
2021/11/08 07:47:11;;;;;;;10.35;7.32;;;4.90;99.90;;;;;;5072663;28;20301;-52
2021/11/08 07:49:37;;;;;;;10.77;7.97;;;5.10;99.90;;;;;;5087555;28;20287;-52
2021/11/08 07:52:03;;;;;;;9.70;7.50;;;5.40;99.90;;;;;;5081703;28;20799;-52
2021/11/08 07:54:31;;;;;;;15.82;9.07;;;5.20;99.90;;;;;;5083394;28;21009;-51
2021/11/08 07:56:58;;;;;;;9.13;7.38;;;5.30;99.90;;;;;;5066099;28;20194;-50
2021/11/08 07:59:24;;;;;;;14.52;7.45;;;5.30;99.90;;;;;;5073763;28;20204;-50
2021/11/08 08:01:50;;;;;;;14.38;7.38;;;5.00;99.90;;;;;;5085394;28;20686;-50
2021/11/08 08:04:16;;;;;;;10.07;7.60;;;5.40;99.90;;;;;;5087613;28;20184;-49
2021/11/08 08:06:43;;;;;;;11.10;8.57;;;5.70;99.90;;;;;;5083926;28;20222;-51
2021/11/08 08:09:09;;;;;;;11.80;7.53;;;5.00;99.90;;;;;;5084065;28;20236;-50
2021/11/08 08:11:35;;;;;;;13.63;7.60;;;5.70;99.90;;;;;;5082907;28;20286;-51
2021/11/08 08:14:01;;;;;;;13.47;8.10;;;5.70;99.90;;;;;;5077704;28;20256;-52
2021/11/08 08:16:27;;;;;;;9.87;7.73;;;5.70;99.90;;;;;;5083005;28;20528;-50
2021/11/08 08:18:54;;;;;;;11.48;7.35;;;6.30;99.90;;;;;;5085437;28;20447;-50
2021/11/08 08:21:21;;;;;;;12.80;8.10;;;6.80;99.90;;;;;;5082483;28;20203;-50
2021/11/08 08:23:54;;;;;;;11.38;7.40;;;6.20;99.90;;;;;;5078291;28;20625;-50
2021/11/08 08:26:24;;;;;;;11.65;7.80;;;6.40;99.90;;;;;;5086596;28;20544;-50
2021/11/08 08:28:51;;;;;;;16.75;7.20;;;6.50;99.90;;;;;;5075564;28;20215;-49
2021/11/08 08:31:17;;;;;;;13.18;8.32;;;6.50;99.90;;;;;;5080708;28;20689;-49
2021/11/08 08:33:42;;;;;;;9.30;7.85;;;6.60;99.90;;;;;;5090452;28;20454;-49
2021/11/08 08:36:08;;;;;;;15.93;7.60;;;6.80;99.90;;;;;;5089412;28;20270;-50
2021/11/08 08:38:34;;;;;;;13.00;7.83;;;6.80;99.90;;;;;;5093679;28;20186;-48
2021/11/08 08:41:00;;;;;;;11.70;8.70;;;7.00;99.90;;;;;;5078374;28;20472;-48
2021/11/08 08:43:28;;;;;;;10.53;7.33;;;7.30;99.90;;;;;;5085684;28;20435;-49
2021/11/08 08:45:55;;;;;;;14.38;8.77;;;7.50;99.90;;;;;;5095841;28;20417;-49
2021/11/08 08:48:21;;;;;;;7.80;6.88;;;7.30;99.90;;;;;;5084378;28;20208;-50
2021/11/08 08:50:47;;;;;;;9.57;6.97;;;7.40;99.90;;;;;;5080021;28;20276;-50
2021/11/08 08:53:13;;;;;;;12.50;7.22;;;8.00;99.90;;;;;;5092073;28;20187;-49
2021/11/08 08:55:41;;;;;;;11.77;6.90;;;8.60;99.90;;;;;;5077926;28;20642;-50
2021/11/08 08:58:07;;;;;;;9.25;6.72;;;8.50;99.90;;;;;;5086678;28;20408;-49
2021/11/08 09:00:35;;;;;;;15.38;7.30;;;9.00;99.90;;;;;;5079174;28;20244;-50
2021/11/08 09:03:01;;;;;;;14.48;7.07;;;9.50;99.90;;;;;;5081348;28;20199;-50
2021/11/08 09:05:27;;;;;;;9.25;7.20;;;9.80;99.90;;;;;;5077575;28;20253;-50
2021/11/08 09:07:54;;;;;;;13.90;6.90;;;9.80;99.90;;;;;;5083449;28;20253;-50
2021/11/08 09:10:23;;;;;;;12.32;7.30;;;9.70;99.90;;;;;;5082492;28;20203;-50
2021/11/08 09:12:49;;;;;;;8.60;7.40;;;9.70;99.90;;;;;;5075468;28;20672;-50
2021/11/08 09:15:15;;;;;;;9.50;6.38;;;10.10;99.90;;;;;;5081111;28;20235;-51
2021/11/08 09:17:41;;;;;;;8.15;6.00;;;10.50;99.90;;;;;;5084238;28;20556;-52
2021/11/08 09:20:08;;;;;;;8.93;6.27;;;10.90;99.90;;;;;;5078977;28;20220;-50
2021/11/08 09:22:35;;;;;;;11.55;6.72;;;10.70;99.90;;;;;;5083284;28;20229;-50
2021/11/08 09:25:04;;;;;;;9.82;6.95;;;10.70;99.90;;;;;;5077123;28;20566;-50
2021/11/08 09:27:29;;;;;;;12.07;7.18;;;10.90;99.90;;;;;;5090254;28;20202;-50
2021/11/08 09:29:55;;;;;;;12.40;7.30;;;11.50;99.90;;;;;;5059615;28;20552;-52
2021/11/08 09:32:21;;;;;;;6.53;5.80;;;11.80;99.90;;;;;;5076334;28;20952;-52
2021/11/08 09:34:50;;;;;;;12.85;6.60;;;11.90;99.90;;;;;;5077198;28;20495;-52
2021/11/08 09:37:18;;;;;;;11.13;7.03;;;12.20;99.90;;;;;;5082906;28;20198;-52
2021/11/08 09:39:44;;;;;;;16.35;6.32;;;12.20;99.90;;;;;;5076223;28;20235;-52
2021/11/08 09:42:13;;;;;;;14.85;8.43;;;12.70;99.70;;;;;;5079891;28;20669;-51
2021/11/08 09:44:43;;;;;;;8.15;5.80;;;12.80;98.60;;;;;;5082640;28;20651;-51
2021/11/08 09:47:09;;;;;;;11.05;6.68;;;12.50;99.20;;;;;;5082799;28;20225;-51
2021/11/08 09:49:39;;;;;;;8.30;6.90;;;12.30;99.60;;;;;;5081276;28;20612;-50
2021/11/08 09:52:05;;;;;;;8.35;5.82;;;12.30;99.90;;;;;;5086900;28;20689;-50
2021/11/08 09:54:37;;;;;;;9.93;6.50;;;12.20;99.90;;;;;;5086560;28;20667;-51
2021/11/08 09:57:03;;;;;;;11.90;7.07;;;12.30;99.40;;;;;;5090464;28;20558;-51
2021/11/08 09:59:32;;;;;;;16.42;8.27;;;12.30;99.90;;;;;;5083368;28;20205;-50
2021/11/08 10:01:59;;;;;;;13.63;8.77;;;12.40;99.80;;;;;;5077879;28;20192;-51
2021/11/08 10:04:25;;;;;;;12.45;7.60;;;12.20;99.90;;;;;;5080772;28;21746;-50
2021/11/08 10:06:51;;;;;;;12.30;7.97;;;12.30;99.90;;;;;;5083683;28;20210;-51
2021/11/08 10:09:19;;;;;;;10.10;7.50;;;12.10;99.90;;;;;;5063848;28;20218;-50
2021/11/08 10:11:47;;;;;;;8.13;5.95;;;12.40;99.90;;;;;;5082126;28;20282;-51
2021/11/08 10:14:13;;;;;;;9.88;7.22;;;12.40;99.50;;;;;;5086590;28;20257;-51
2021/11/08 10:16:41;;;;;;;11.50;7.03;;;12.40;99.10;;;;;;5077867;28;20278;-51
2021/11/08 10:19:10;;;;;;;10.05;6.43;;;12.20;99.80;;;;;;5082377;28;20548;-51
2021/11/08 10:21:42;;;;;;;12.38;6.80;;;12.30;99.90;;;;;;5081743;28;20192;-51
2021/11/08 10:24:15;;;;;;;10.20;6.55;;;12.70;99.30;;;;;;5076388;28;20183;-51
2021/11/08 10:26:42;;;;;;;8.35;5.75;;;12.90;99.30;;;;;;5074033;28;20224;-51
2021/11/08 10:29:11;;;;;;;11.68;6.57;;;13.00;98.20;;;;;;5084643;28;20701;-51
2021/11/08 10:31:56;;;;;;;9.77;6.55;;;12.60;98.20;;;;;;5079587;28;20188;-51
2021/11/08 10:34:24;;;;;;;10.65;6.40;;;13.70;97.80;;;;;;5076430;28;20741;-51
2021/11/08 10:37:22;;;;;;;12.30;7.47;;;14.10;95.80;;;;;;5075716;28;20189;-52
2021/11/08 10:39:47;;;;;;;10.02;7.22;;;13.50;96.20;;;;;;5071038;28;20383;-50
2021/11/08 10:42:24;;;;;;;11.07;6.83;;;13.10;97.30;;;;;;5083402;28;20286;-49
2021/11/08 10:44:50;;;;;;;9.95;7.10;;;12.50;97.50;;;;;;5062220;28;20182;-50
2021/11/08 10:47:20;;;;;;;7.80;7.00;;;12.20;98.60;;;;;;5087758;28;20211;-50
2021/11/08 10:49:48;;;;;;;11.93;6.75;;;12.40;99.10;;;;;;5082319;28;20221;-50
2021/11/08 10:52:17;;;;;;;19.40;8.30;;;12.10;98.80;;;;;;5082677;28;20182;-49
2021/11/08 10:54:47;;;;;;;13.70;7.85;;;11.90;99.30;;;;;;5081693;28;20573;-51
2021/11/08 10:57:17;;;;;;;13.48;7.28;;;11.80;99.90;;;;;;5083498;28;20184;-50
2021/11/08 10:59:48;;;;;;;10.98;7.45;;;11.60;99.90;;;;;;5080683;28;20328;-50
2021/11/08 11:02:16;;;;;;;9.57;7.00;;;11.90;99.90;;;;;;5077797;28;20185;-50
2021/11/08 11:04:50;;;;;;;8.43;7.25;;;11.60;99.70;;;;;;5083389;28;20184;-49
2021/11/08 11:07:34;;;;;;;12.93;9.57;;;11.30;99.90;;;;;;5081923;28;20332;-50
2021/11/08 11:10:02;;;;;;;10.93;6.15;;;11.20;99.90;;;;;;5076345;28;20202;-50
2021/11/08 11:12:29;;;;;;;10.02;6.32;;;11.50;99.90;;;;;;5082272;28;20173;-49
2021/11/08 11:14:58;;;;;;;9.20;6.25;;;11.40;99.90;;;;;;5078402;28;20232;-49
2021/11/08 11:17:29;;;;;;;9.07;6.63;;;11.80;99.90;;;;;;5071011;28;20256;-49
2021/11/08 11:20:13;;;;;;;7.30;6.05;;;11.70;99.90;;;;;;5086162;28;20552;-50
2021/11/08 11:22:44;;;;;;;12.05;6.63;;;11.80;99.30;;;;;;5069050;28;20188;-49
2021/11/08 11:25:12;;;;;;;11.55;7.30;;;12.00;98.80;;;;;;5079969;28;20182;-49
2021/11/08 11:27:48;;;;;;;15.57;8.30;;;12.20;98.30;;;;;;5082325;28;20230;-50
2021/11/08 11:30:21;;;;;;;18.27;6.88;;;12.20;98.50;;;;;;5088227;28;20228;-49
2021/11/08 11:32:59;;;;;;;13.65;8.15;;;12.30;98.60;;;;;;5080469;28;20189;-50
2021/11/08 11:35:30;;;;;;;10.57;5.80;;;12.00;98.50;;;;;;5086743;28;20238;-50
2021/11/08 11:38:08;;;;;;;8.27;6.50;;;12.00;98.00;;;;;;5090740;28;20724;-50
2021/11/08 11:40:38;;;;;;;8.82;5.32;;;11.90;97.90;;;;;;5081530;28;20293;-50
2021/11/08 11:43:10;;;;;;;7.22;6.30;;;12.00;98.20;;;;;;5087322;28;20253;-50
2021/11/08 11:45:54;;;;;;;8.05;6.82;;;11.70;98.30;;;;;;5082067;28;20597;-49
2021/11/08 11:48:23;;;;;;;7.35;5.50;;;11.40;98.30;;;;;;5078733;28;20692;-50
2021/11/08 11:50:49;;;;;;;8.18;5.70;;;11.10;99.40;;;;;;5085487;28;20196;-50
2021/11/08 11:53:15;;;;;;;17.40;7.00;;;10.80;99.90;;;;;;5083529;28;20187;-49
2021/11/08 11:55:41;;;;;;;8.67;5.70;;;10.40;99.90;;;;;;5081294;28;20189;-48
2021/11/08 11:58:07;;;;;;;9.27;6.00;;;10.80;99.90;;;;;;5083526;28;20534;-50
2021/11/08 12:00:38;;;;;;;8.73;5.55;;;10.70;99.70;;;;;;5082412;28;20259;-50
2021/11/08 12:03:05;;;;;;;8.23;5.45;;;10.90;99.90;;;;;;5087528;28;20671;-51
2021/11/08 12:05:31;;;;;;;11.10;6.40;;;11.10;99.90;;;;;;5096466;28;20223;-51
2021/11/08 12:08:01;;;;;;;9.95;5.72;;;10.90;99.90;;;;;;5093342;28;20222;-51
2021/11/08 12:10:27;;;;;;;10.60;5.68;;;11.00;99.70;;;;;;5082928;28;20197;-51
2021/11/08 12:12:54;;;;;;;10.23;5.75;;;11.10;99.50;;;;;;5081961;28;20258;-51
2021/11/08 12:15:29;;;;;;;10.02;5.63;;;11.00;99.60;;;;;;5085451;28;20192;-51
2021/11/08 12:18:09;;;;;;;8.57;5.25;;;11.00;99.90;;;;;;5086095;28;20177;-51
2021/11/08 12:20:48;;;;;;;10.05;5.63;;;11.40;99.50;;;;;;5075742;28;20290;-52
2021/11/08 12:23:23;;;;;;;10.30;4.68;;;11.00;99.10;;;;;;5077022;28;20181;-52
2021/11/08 12:25:51;;;;;;;10.77;5.38;;;11.30;99.00;;;;;;5087833;28;20671;-51
2021/11/08 12:28:25;;;;;;;15.25;5.50;;;11.20;98.80;;;;;;5083218;28;20241;-51
2021/11/08 12:30:54;;;;;;;9.40;5.13;;;11.10;99.10;;;;;;5084487;28;20259;-50
2021/11/08 12:33:29;;;;;;;8.50;4.40;;;11.40;98.50;;;;;;5084294;28;20192;-52
2021/11/08 12:36:14;;;;;;;8.68;3.95;;;11.40;98.20;;;;;;5079144;28;20194;-51
2021/11/08 12:38:51;;;;;;;9.05;4.70;;;11.30;97.90;;;;;;5087977;28;20264;-51
2021/11/08 12:41:25;;;;;;;9.10;4.70;;;11.40;98.80;;;;;;5081199;28;20283;-51
2021/11/08 12:43:57;;;;;;;7.63;4.82;;;11.40;97.90;;;;;;5083589;28;20758;-53
2021/11/08 12:46:33;;;;;;;8.95;4.25;;;11.90;97.80;;;;;;5075468;28;20240;-51
2021/11/08 12:49:09;;;;;;;11.40;5.53;;;11.50;97.60;;;;;;5083438;28;20180;-51
2021/11/08 12:51:36;;;;;;;10.50;5.22;;;11.60;97.80;;;;;;5064430;28;20665;-50
2021/11/08 12:54:10;;;;;;;9.10;4.40;;;11.40;97.70;;;;;;5090157;28;20186;-50
2021/11/08 12:56:42;;;;;;;11.88;4.75;;;11.20;98.00;;;;;;5079100;28;20237;-49
2021/11/08 12:59:16;;;;;;;6.47;3.97;;;11.20;98.40;;;;;;5078438;28;20668;-50
2021/11/08 13:01:47;;;;;;;5.38;3.50;;;11.20;97.80;;;;;;5080466;28;20688;-50
2021/11/08 13:04:15;;;;;;;10.73;4.47;;;11.50;97.90;;;;;;5082685;28;20177;-51
2021/11/08 13:06:41;;;;;;;11.13;4.95;;;11.60;97.90;;;;;;5095753;28;20263;-51
2021/11/08 13:09:15;;;;;;;6.38;3.97;;;11.40;97.60;;;;;;5090926;28;20682;-51
2021/11/08 13:11:55;;;;;;;5.10;3.17;;;11.50;97.60;;;;;;5090312;28;20187;-50
2021/11/08 13:14:34;;;;;;;5.88;3.40;;;11.60;96.00;;;;;;5088265;28;20173;-51
2021/11/08 13:17:10;;;;;;;12.27;4.60;;;11.50;96.00;;;;;;5077133;28;20191;-50
2021/11/08 13:19:50;;;;;;;9.43;3.83;;;11.50;96.40;;;;;;5072823;28;20220;-50
2021/11/08 13:22:26;;;;;;;9.70;3.60;;;11.60;96.40;;;;;;5081300;28;20195;-50
2021/11/08 13:25:13;;;;;;;4.13;3.00;;;11.20;95.70;;;;;;5091097;28;20554;-51
2021/11/08 13:27:48;;;;;;;5.15;3.95;;;11.50;95.80;;;;;;5087515;28;20189;-50
2021/11/08 13:30:15;;;;;;;10.63;3.03;;;11.50;95.90;;;;;;5073724;28;20196;-50
2021/11/08 13:32:42;;;;;;;6.63;2.78;;;11.50;95.30;;;;;;5071540;28;20649;-51
2021/11/08 13:35:09;;;;;;;8.45;3.50;;;11.40;95.00;;;;;;5088270;28;20188;-50
2021/11/08 13:37:38;;;;;;;8.43;3.90;;;11.40;95.10;;;;;;5084176;28;20187;-51
2021/11/08 13:40:15;;;;;;;7.50;3.55;;;11.50;95.30;;;;;;5081178;28;20209;-51
2021/11/08 13:42:41;;;;;;;5.95;4.15;;;11.90;95.50;;;;;;5088702;28;20192;-52
2021/11/08 13:45:07;;;;;;;11.43;3.83;;;11.70;95.60;;;;;;5064648;28;20181;-52
2021/11/08 13:47:44;;;;;;;9.80;3.50;;;11.60;95.20;;;;;;5083850;28;20208;-51
2021/11/08 13:50:20;;;;;;;4.93;3.47;;;11.40;95.60;;;;;;5086962;28;20202;-52
2021/11/08 13:52:48;;;;;;;5.90;3.72;;;11.70;95.00;;;;;;5061925;28;20186;-51
2021/11/08 13:55:15;;;;;;;5.32;2.97;;;11.80;94.00;;;;;;5092412;28;20197;-50
2021/11/08 13:57:43;;;;;;;7.68;4.30;;;11.80;94.60;;;;;;5076828;28;20215;-50
2021/11/08 14:00:16;;;;;;;7.30;4.50;;;12.00;95.90;;;;;;5080266;28;20246;-51
2021/11/08 14:02:42;;;;;;;13.48;5.47;;;11.70;96.70;;;;;;5062851;28;20180;-51
2021/11/08 14:05:10;;;;;;;7.07;4.85;;;11.80;97.00;;;;;;5089314;28;20678;-50
2021/11/08 14:07:36;;;;;;;8.93;5.25;;;12.00;97.30;;;;;;5085910;28;20210;-50
2021/11/08 14:10:05;;;;;;;8.63;4.65;;;11.60;97.40;;;;;;5060030;28;20600;-51
2021/11/08 14:12:31;;;;;;;5.22;3.42;;;11.80;97.80;;;;;;5078365;28;20181;-51
2021/11/08 14:14:59;;;;;;;9.77;5.15;;;11.80;95.40;;;;;;5079009;28;20660;-50
2021/11/08 14:17:35;;;;;;;4.70;3.97;;;11.50;94.80;;;;;;5072295;28;20182;-50
2021/11/08 14:20:07;;;;;;;6.57;3.75;;;11.70;94.40;;;;;;5062047;28;20203;-50
2021/11/08 14:22:35;;;;;;;7.82;3.58;;;11.80;94.40;;;;;;5069260;28;20181;-50
2021/11/08 14:25:04;;;;;;;6.97;3.50;;;11.60;94.10;;;;;;5087537;28;20250;-50
2021/11/08 14:27:33;;;;;;;6.80;4.15;;;11.60;94.10;;;;;;5084208;28;20222;-50
2021/11/08 14:30:22;;;;;;;6.60;3.75;;;11.60;94.90;;;;;;5073115;28;20205;-50
2021/11/08 14:32:52;;;;;;;7.20;4.03;;;11.70;95.60;;;;;;5081217;28;20670;-50
2021/11/08 14:35:22;;;;;;;6.50;3.67;;;11.60;95.80;;;;;;5078302;28;20711;-50
2021/11/08 14:38:31;;;;;;;6.15;3.97;;;11.40;95.90;;;;;;5078959;28;20218;-50
2021/11/08 14:40:49;;;;;;;4.30;3.78;;;11.10;95.80;;;;;;5067636;28;20232;-50
2021/11/08 14:43:16;;;;;;;10.00;3.57;;;11.60;95.40;;;;;;5079363;28;20554;-50